Time;durP1;ratioP1;P1;durP2;ratioP2;P2;SDS_P1;SDS_P2;PMS_P1;PMS_P2;Temp;Humidity;BMP_temperature;BMP_pressure;BME280_temperature;BME280_humidity;BME280_pressure;Samples;Min_cycle;Max_cycle;Signal;HPM_P1;HPM_P2
2022/06/10 00:01:09;;;;;;;8.18;4.25;;;;;;;22.10;52.61;102116.47;5078271;28;20058;-57
2022/06/10 00:03:36;;;;;;;11.40;5.03;;;;;;;22.08;52.58;102106.84;5077757;28;20105;-56
2022/06/10 00:06:05;;;;;;;8.18;4.35;;;;;;;22.08;52.82;102109.53;5076089;28;20054;-57
2022/06/10 00:08:38;;;;;;;10.73;4.82;;;;;;;22.07;52.85;102108.69;5076849;28;20134;-57
2022/06/10 00:11:06;;;;;;;7.35;4.28;;;;;;;22.06;52.61;102101.56;5078685;28;20048;-57
2022/06/10 00:13:36;;;;;;;10.07;4.45;;;;;;;22.05;52.64;102107.97;5080162;28;20044;-56
2022/06/10 00:16:04;;;;;;;9.63;4.53;;;;;;;22.05;52.71;102107.13;5079308;28;20419;-56
2022/06/10 00:18:32;;;;;;;8.02;4.60;;;;;;;22.02;52.89;102100.19;5075220;28;20048;-56
2022/06/10 00:21:01;;;;;;;9.07;5.28;;;;;;;22.03;52.82;102110.00;5076537;28;20052;-56
2022/06/10 00:23:28;;;;;;;9.70;4.63;;;;;;;22.01;52.78;102106.59;5075709;28;20046;-56
2022/06/10 00:25:54;;;;;;;8.65;4.65;;;;;;;22.01;52.86;102101.19;5077236;28;20044;-57
2022/06/10 00:28:21;;;;;;;8.55;4.50;;;;;;;22.01;53.11;102094.94;5075653;28;20380;-56
2022/06/10 00:30:48;;;;;;;9.73;3.95;;;;;;;22.00;52.84;102098.66;5073550;28;20138;-56
2022/06/10 00:33:14;;;;;;;7.15;4.25;;;;;;;21.99;53.08;102102.31;5076159;28;20123;-56
2022/06/10 00:35:42;;;;;;;8.77;4.25;;;;;;;21.98;52.74;102104.19;5073741;28;20101;-56
2022/06/10 00:38:09;;;;;;;7.10;3.88;;;;;;;21.98;52.77;102101.47;5076667;28;20050;-56
2022/06/10 00:40:41;;;;;;;7.53;4.20;;;;;;;21.97;52.96;102102.47;5077716;28;20055;-56
2022/06/10 00:43:16;;;;;;;6.68;3.70;;;;;;;21.96;52.92;102092.69;5076774;28;20044;-56
2022/06/10 00:45:56;;;;;;;6.32;3.55;;;;;;;21.96;52.94;102098.09;5078509;28;20058;-57
2022/06/10 00:48:44;;;;;;;8.00;4.28;;;;;;;21.94;53.19;102092.81;5080270;28;20052;-57
2022/06/10 00:51:19;;;;;;;8.40;4.22;;;;;;;21.93;53.16;102095.69;5078277;28;20335;-56
2022/06/10 00:53:53;;;;;;;9.65;3.90;;;;;;;21.95;53.15;102104.50;5078404;28;20087;-56
2022/06/10 00:56:23;;;;;;;5.80;3.42;;;;;;;21.94;53.12;102095.53;5078503;28;20040;-56
2022/06/10 00:58:58;;;;;;;7.72;3.70;;;;;;;21.94;53.13;102102.78;5075788;28;20048;-56
2022/06/10 01:01:26;;;;;;;9.75;3.80;;;;;;;21.92;53.16;102102.94;5078555;28;20043;-56
2022/06/10 01:03:54;;;;;;;7.15;3.55;;;;;;;21.91;53.17;102100.41;5077418;28;20048;-56
2022/06/10 01:06:21;;;;;;;7.35;3.47;;;;;;;21.89;53.22;102105.91;5074377;28;20442;-55
2022/06/10 01:08:50;;;;;;;5.82;3.45;;;;;;;21.89;53.27;102107.78;5078420;28;20087;-56
2022/06/10 01:11:35;;;;;;;6.85;3.40;;;;;;;21.90;53.15;102099.50;5073754;28;20051;-56
2022/06/10 01:14:27;;;;;;;7.07;3.60;;;;;;;21.86;53.14;102103.50;5078077;28;20130;-55
2022/06/10 01:17:10;;;;;;;6.47;3.33;;;;;;;21.88;53.21;102098.81;5076913;28;20058;-55
2022/06/10 01:20:06;;;;;;;7.60;3.72;;;;;;;21.88;53.37;102095.28;5076123;28;20040;-56
2022/06/10 01:23:06;;;;;;;8.38;3.53;;;;;;;21.85;53.18;102082.06;5075634;28;20059;-56
2022/06/10 01:25:51;;;;;;;7.72;2.85;;;;;;;21.85;53.29;102092.88;5078196;28;20046;-56
2022/06/10 01:28:27;;;;;;;5.20;2.75;;;;;;;21.85;53.45;102087.47;5075312;28;20044;-55
2022/06/10 01:31:08;;;;;;;8.27;3.30;;;;;;;21.84;53.66;102094.72;5072219;28;20059;-55
2022/06/10 01:33:45;;;;;;;7.38;3.22;;;;;;;21.84;53.38;102092.03;5073965;28;20292;-56
2022/06/10 01:36:20;;;;;;;7.63;3.10;;;;;;;21.84;53.73;102096.59;5078822;28;20071;-57
2022/06/10 01:38:56;;;;;;;7.95;3.22;;;;;;;21.84;53.52;102091.19;5076606;28;20345;-55
2022/06/10 01:41:58;;;;;;;4.93;2.85;;;;;;;21.83;53.67;102089.47;5074959;28;20138;-56
2022/06/10 01:44:28;;;;;;;5.93;2.97;;;;;;;21.84;53.23;102089.34;5078507;28;20885;-56
2022/06/10 01:47:10;;;;;;;6.32;3.22;;;;;;;21.84;53.27;102091.19;5080248;28;20044;-56
2022/06/10 01:49:58;;;;;;;5.53;3.05;;;;;;;21.84;53.60;102099.28;5076549;28;20689;-56
2022/06/10 01:52:36;;;;;;;6.28;3.15;;;;;;;21.82;53.41;102090.47;5078068;28;20044;-56
2022/06/10 01:55:11;;;;;;;6.10;3.45;;;;;;;21.84;53.61;102085.78;5079748;28;20152;-56
2022/06/10 01:57:59;;;;;;;8.18;3.25;;;;;;;21.82;53.33;102090.47;5079280;28;20055;-56
2022/06/10 02:00:29;;;;;;;8.50;3.10;;;;;;;21.83;53.50;102093.03;5079945;28;20044;-57
2022/06/10 02:03:01;;;;;;;5.55;2.90;;;;;;;21.84;53.45;102088.47;5078354;28;20443;-56
2022/06/10 02:05:32;;;;;;;6.32;3.00;;;;;;;21.82;53.51;102094.00;5080035;28;20048;-56
2022/06/10 02:08:07;;;;;;;6.00;3.13;;;;;;;21.82;53.32;102087.75;5080875;28;20056;-56
2022/06/10 02:10:46;;;;;;;6.35;2.80;;;;;;;21.81;53.58;102088.78;5077439;28;20191;-56
2022/06/10 02:13:17;;;;;;;5.78;3.10;;;;;;;21.82;53.70;102094.00;5081044;28;20058;-56
2022/06/10 02:15:49;;;;;;;6.88;2.75;;;;;;;21.82;53.52;102085.91;5076575;28;20048;-57
2022/06/10 02:18:58;;;;;;;6.82;2.95;;;;;;;21.81;53.80;102083.38;5078062;28;20305;-57
2022/06/10 02:21:44;;;;;;;6.13;2.53;;;;;;;21.82;53.47;102085.91;5065450;28;20220;-57
2022/06/10 02:24:34;;;;;;;4.47;2.83;;;;;;;21.83;53.37;102092.16;5080163;28;20483;-56
2022/06/10 02:27:29;;;;;;;5.97;2.60;;;;;;;21.83;53.51;102093.03;5075942;28;20048;-56
2022/06/10 02:30:08;;;;;;;5.15;3.00;;;;;;;21.82;53.47;102095.88;5077392;28;20058;-57
2022/06/10 02:32:36;;;;;;;4.63;2.50;;;;;;;21.82;53.60;102099.41;5080946;28;20054;-57
2022/06/10 02:35:05;;;;;;;6.95;2.92;;;;;;;21.82;53.58;102099.41;5080495;28;20067;-56
2022/06/10 02:37:53;;;;;;;4.90;3.08;;;;;;;21.81;53.49;102099.56;5083985;28;20392;-56
2022/06/10 02:40:31;;;;;;;9.48;2.75;;;;;;;21.80;53.55;102097.88;5077274;28;20047;-56
2022/06/10 02:43:25;;;;;;;6.70;2.95;;;;;;;21.81;53.67;102103.13;5077346;28;20052;-56
2022/06/10 02:46:04;;;;;;;6.83;2.53;;;;;;;21.80;53.56;102100.56;5074050;28;20805;-57
2022/06/10 02:48:39;;;;;;;9.77;2.80;;;;;;;21.79;53.64;102102.44;5078038;28;20564;-57
2022/06/10 02:51:06;;;;;;;6.20;2.58;;;;;;;21.79;53.71;102101.56;5077675;28;20157;-56
2022/06/10 02:53:33;;;;;;;5.78;2.58;;;;;;;21.78;53.48;102100.69;5076226;28;20058;-56
2022/06/10 02:56:00;;;;;;;4.47;2.70;;;;;;;21.78;53.70;102100.69;5079245;28;20047;-56
2022/06/10 03:01:30;;;;;;;5.85;2.80;;;;;;;21.78;53.55;102105.25;5076338;28;20044;-56
2022/06/10 03:04:13;;;;;;;5.13;2.33;;;;;;;21.76;53.82;102110.81;5076231;28;20039;-57
2022/06/10 03:07:17;;;;;;;5.53;2.40;;;;;;;21.76;53.68;102100.03;5081586;28;20040;-57
2022/06/10 03:10:03;;;;;;;5.17;2.30;;;;;;;21.75;53.43;102106.41;5079841;28;20080;-56
2022/06/10 03:12:52;;;;;;;5.28;2.58;;;;;;;21.75;53.72;102095.63;5078730;28;20044;-57
2022/06/10 03:15:43;;;;;;;5.57;2.22;;;;;;;21.77;53.59;102106.25;5075148;28;20037;-56
2022/06/10 03:18:25;;;;;;;5.38;2.30;;;;;;;21.77;53.76;102103.56;5075718;28;20051;-57
2022/06/10 03:21:16;;;;;;;3.75;2.40;;;;;;;21.76;53.41;102109.97;5078029;28;20048;-57
2022/06/10 03:24:05;;;;;;;5.05;2.08;;;;;;;21.77;53.63;102114.34;5076883;28;20458;-56
2022/06/10 03:26:49;;;;;;;4.18;2.20;;;;;;;21.76;53.43;102116.22;5077049;28;20041;-56
2022/06/10 03:29:39;;;;;;;4.88;2.08;;;;;;;21.76;53.70;102118.91;5080242;28;20794;-55
2022/06/10 03:32:36;;;;;;;4.82;2.47;;;;;;;21.73;53.56;102111.09;5076160;28;20053;-56
2022/06/10 03:35:12;;;;;;;3.97;1.90;;;;;;;21.75;53.44;102125.31;5070938;28;20053;-56
2022/06/10 03:37:41;;;;;;;5.93;2.25;;;;;;;21.75;53.52;102116.34;5079121;28;20419;-56
2022/06/10 03:40:23;;;;;;;3.40;1.75;;;;;;;21.75;53.60;102124.44;5078392;28;20313;-56
2022/06/10 03:42:53;;;;;;;4.80;2.40;;;;;;;21.74;53.65;102120.03;5074768;28;20075;-56
2022/06/10 03:45:32;;;;;;;4.88;1.83;;;;;;;21.73;53.72;102121.91;5080384;28;20036;-56
2022/06/10 03:47:59;;;;;;;4.93;1.77;;;;;;;21.75;53.53;102127.13;5077302;28;20047;-56
2022/06/10 03:50:31;;;;;;;5.97;2.10;;;;;;;21.74;53.62;102122.75;5075498;28;20300;-57
2022/06/10 03:52:58;;;;;;;6.00;2.22;;;;;;;21.75;53.93;102129.84;5079103;28;20836;-57
2022/06/10 03:55:24;;;;;;;6.57;2.75;;;;;;;21.74;53.48;102133.53;5073808;28;20656;-57
2022/06/10 03:57:51;;;;;;;7.75;2.38;;;;;;;21.74;53.70;102130.84;5079423;28;20048;-58
2022/06/10 04:00:23;;;;;;;10.35;2.40;;;;;;;21.73;53.92;102139.94;5080165;28;20052;-57
2022/06/10 04:02:49;;;;;;;7.53;2.60;;;;;;;21.73;53.91;102139.94;5075823;28;20056;-57
2022/06/10 04:05:18;;;;;;;8.43;2.78;;;;;;;21.73;53.85;102138.09;5083728;28;20044;-57
2022/06/10 04:07:44;;;;;;;7.30;2.13;;;;;;;21.73;53.77;102139.94;5078500;28;20044;-57
2022/06/10 04:10:16;;;;;;;8.55;2.20;;;;;;;21.72;53.82;102141.78;5080643;28;20055;-57
2022/06/10 04:12:42;;;;;;;6.22;2.58;;;;;;;21.73;53.73;102142.63;5079065;28;20044;-57
2022/06/10 04:15:14;;;;;;;10.98;3.33;;;;;;;21.72;53.79;102143.66;5079057;28;20403;-56
2022/06/10 04:17:46;;;;;;;10.75;2.83;;;;;;;21.72;53.82;102144.50;5077416;28;20049;-57
2022/06/10 04:20:22;;;;;;;9.80;2.60;;;;;;;21.72;53.81;102147.19;5078844;28;20331;-58
2022/06/10 04:22:49;;;;;;;8.38;2.75;;;;;;;21.72;53.78;102151.75;5076958;28;20064;-57
2022/06/10 04:25:16;;;;;;;7.78;2.80;;;;;;;21.72;53.54;102154.44;5081942;28;20047;-57
2022/06/10 04:27:43;;;;;;;10.43;2.92;;;;;;;21.73;53.60;102156.97;5082492;28;20052;-57
2022/06/10 04:30:21;;;;;;;7.57;2.42;;;;;;;21.71;53.69;102152.72;5080232;28;20052;-56
2022/06/10 04:32:47;;;;;;;12.32;3.60;;;;;;;21.71;53.74;102141.91;5081002;28;20040;-57
2022/06/10 04:35:14;;;;;;;7.53;3.58;;;;;;;21.71;53.73;102139.22;5079449;28;20040;-57
2022/06/10 04:37:40;;;;;;;10.20;2.72;;;;;;;21.69;53.62;102145.63;5075867;28;21043;-57
2022/06/10 04:40:08;;;;;;;7.95;3.22;;;;;;;21.69;53.61;102145.63;5075830;28;20059;-57
2022/06/10 04:42:34;;;;;;;6.60;2.90;;;;;;;21.69;53.76;102145.63;5081425;28;20043;-58
2022/06/10 04:45:01;;;;;;;8.07;3.50;;;;;;;21.69;53.75;102139.38;5077328;28;20055;-57
2022/06/10 04:47:28;;;;;;;9.52;3.30;;;;;;;21.69;53.87;102142.91;5080129;28;20296;-57
2022/06/10 04:49:59;;;;;;;6.57;3.00;;;;;;;21.69;53.89;102151.00;5080010;28;20078;-57
2022/06/10 04:52:27;;;;;;;7.82;3.13;;;;;;;21.71;53.94;102148.19;5077442;28;20116;-57
2022/06/10 04:54:54;;;;;;;9.23;3.65;;;;;;;21.71;53.84;102144.63;5081304;28;20086;-57
2022/06/10 04:57:21;;;;;;;6.97;3.35;;;;;;;21.70;53.82;102146.47;5076964;28;20048;-57
2022/06/10 04:59:48;;;;;;;8.32;3.38;;;;;;;21.69;53.74;102137.53;5080339;28;20044;-57
2022/06/10 05:02:15;;;;;;;7.60;3.30;;;;;;;21.70;53.83;102135.66;5077251;28;20143;-56
2022/06/10 05:04:42;;;;;;;12.40;3.97;;;;;;;21.71;53.60;102141.91;5080846;28;20100;-56
2022/06/10 05:07:09;;;;;;;12.50;3.63;;;;;;;21.70;53.99;102143.78;5078872;28;20067;-57
2022/06/10 05:09:35;;;;;;;8.43;3.05;;;;;;;21.71;53.88;102131.13;5075542;28;20042;-57
2022/06/10 05:12:02;;;;;;;8.40;3.38;;;;;;;21.71;53.76;102136.53;5078353;28;20335;-57
2022/06/10 05:14:29;;;;;;;8.55;3.70;;;;;;;21.69;53.77;102134.81;5077233;28;20068;-57
2022/06/10 05:16:56;;;;;;;9.48;3.42;;;;;;;21.71;53.81;102131.13;5075687;28;20123;-57
2022/06/10 05:19:23;;;;;;;9.20;3.60;;;;;;;21.70;53.76;102135.66;5080340;28;20052;-57
2022/06/10 05:21:50;;;;;;;9.45;3.78;;;;;;;21.72;53.50;102135.53;5079876;28;20063;-57
2022/06/10 05:24:16;;;;;;;9.00;3.53;;;;;;;21.72;53.83;102131.00;5082021;28;20322;-57
2022/06/10 05:26:43;;;;;;;7.72;4.05;;;;;;;21.72;53.89;102133.69;5083154;28;20052;-56
2022/06/10 05:29:09;;;;;;;7.82;3.42;;;;;;;21.73;53.43;102129.13;5080486;28;20105;-57
2022/06/10 05:31:36;;;;;;;7.72;3.22;;;;;;;21.74;53.78;102131.69;5081631;28;20049;-57
2022/06/10 05:36:48;;;;;;;8.25;3.42;;;;;;;21.75;53.51;102133.41;5081642;28;20119;-56
2022/06/10 05:39:14;;;;;;;7.43;3.35;;;;;;;21.75;53.36;102135.22;5079634;28;20049;-56
2022/06/10 05:44:26;;;;;;;9.85;3.45;;;;;;;21.77;53.42;102130.56;5085577;28;20067;-55
2022/06/10 05:46:54;;;;;;;7.68;3.60;;;;;;;21.76;53.48;102129.69;5084131;28;20048;-57
2022/06/10 05:49:21;;;;;;;8.10;3.45;;;;;;;21.76;53.55;102140.50;5079107;28;20067;-56
2022/06/10 05:51:48;;;;;;;10.48;3.65;;;;;;;21.77;53.55;102142.19;5082428;28;20441;-57
2022/06/10 05:54:16;;;;;;;8.90;3.58;;;;;;;21.77;53.62;102141.34;5078757;28;20071;-57
2022/06/10 05:56:46;;;;;;;9.25;3.30;;;;;;;21.77;53.55;102139.50;5081431;28;20059;-56
2022/06/10 05:59:14;;;;;;;6.75;3.28;;;;;;;21.77;53.48;102136.78;5078462;28;20057;-56
2022/06/10 06:01:41;;;;;;;10.10;3.28;;;;;;;21.78;53.49;102143.03;5077431;28;20040;-57
2022/06/10 06:04:07;;;;;;;7.50;3.40;;;;;;;21.76;53.32;102135.09;5082775;28;20046;-57
2022/06/10 06:06:34;;;;;;;9.45;3.28;;;;;;;21.76;53.70;102137.81;5079042;28;20515;-58
2022/06/10 06:09:00;;;;;;;7.10;3.00;;;;;;;21.77;53.35;102138.66;5078054;28;20044;-56
2022/06/10 06:11:27;;;;;;;7.32;3.70;;;;;;;21.77;53.41;102144.88;5078870;28;20127;-57
2022/06/10 06:13:53;;;;;;;9.57;3.35;;;;;;;21.76;52.93;102145.91;5079817;28;20050;-56
2022/06/10 06:16:21;;;;;;;8.60;3.50;;;;;;;21.77;53.56;102146.75;5080910;28;20067;-57
2022/06/10 06:18:52;;;;;;;6.70;3.53;;;;;;;21.76;53.25;102156.69;5076259;28;20046;-57
2022/06/10 06:21:21;;;;;;;8.35;3.30;;;;;;;21.76;53.24;102162.09;5081869;28;20166;-57
2022/06/10 06:23:48;;;;;;;7.88;3.20;;;;;;;21.77;53.27;102163.78;5078319;28;20094;-56
2022/06/10 06:26:15;;;;;;;5.75;2.83;;;;;;;21.78;53.39;102162.78;5081125;28;20056;-57
2022/06/10 06:28:42;;;;;;;8.68;4.00;;;;;;;21.78;53.61;102164.63;5072971;28;20044;-57
2022/06/10 06:31:10;;;;;;;7.95;3.20;;;;;;;21.79;53.38;102163.63;5080338;28;20131;-57
2022/06/10 06:33:37;;;;;;;7.68;3.13;;;;;;;21.79;53.28;102163.63;5083044;28;20052;-56
2022/06/10 06:36:04;;;;;;;8.93;3.67;;;;;;;21.80;53.41;102162.66;5077302;28;20040;-56
2022/06/10 06:38:31;;;;;;;8.05;3.70;;;;;;;21.80;53.26;102171.59;5080175;28;20431;-56
2022/06/10 06:40:57;;;;;;;7.85;3.35;;;;;;;21.80;53.04;102174.28;5078184;28;20040;-56
2022/06/10 06:43:24;;;;;;;8.73;3.38;;;;;;;21.81;53.44;102173.28;5081059;28;20126;-57
2022/06/10 06:45:51;;;;;;;5.82;3.08;;;;;;;21.81;53.29;102176.00;5080934;28;20308;-57
2022/06/10 06:48:17;;;;;;;5.63;2.83;;;;;;;21.81;53.36;102169.75;5084284;28;20062;-57
2022/06/10 06:50:48;;;;;;;7.43;3.22;;;;;;;21.80;52.93;102168.91;5077663;28;20134;-57
2022/06/10 06:53:15;;;;;;;7.22;3.05;;;;;;;21.81;52.88;102169.75;5075125;28;20050;-57
2022/06/10 06:55:42;;;;;;;6.13;2.92;;;;;;;21.82;53.13;102171.44;5080430;28;20073;-58
2022/06/10 06:58:13;;;;;;;6.95;3.67;;;;;;;21.81;53.03;102170.59;5076053;28;20127;-57
2022/06/10 07:00:45;;;;;;;8.23;3.08;;;;;;;21.82;52.98;102174.97;5081280;28;20047;-57
2022/06/10 07:03:11;;;;;;;10.60;2.72;;;;;;;21.83;52.92;102173.13;5077861;28;20072;-57
2022/06/10 07:05:38;;;;;;;5.97;3.15;;;;;;;21.83;53.04;102179.41;5081457;28;20039;-57
2022/06/10 07:08:05;;;;;;;8.60;3.53;;;;;;;21.85;52.89;102173.84;5079890;28;20135;-57
2022/06/10 07:10:31;;;;;;;6.88;2.42;;;;;;;21.87;53.04;102183.50;5077846;28;20044;-57
2022/06/10 07:12:58;;;;;;;7.90;3.40;;;;;;;21.89;53.06;102184.19;5078126;28;20126;-58
2022/06/10 07:15:24;;;;;;;5.82;3.08;;;;;;;21.91;52.92;102184.06;5078131;28;20046;-57
2022/06/10 07:17:51;;;;;;;7.35;2.65;;;;;;;21.92;52.84;102183.91;5080790;28;20050;-57
2022/06/10 07:20:26;;;;;;;6.28;2.85;;;;;;;21.93;52.85;102182.06;5077498;28;20127;-57
2022/06/10 07:22:52;;;;;;;5.63;2.78;;;;;;;21.94;52.90;102181.91;5081631;28;20346;-57
2022/06/10 07:25:20;;;;;;;9.55;2.90;;;;;;;21.95;52.75;102182.78;5086216;28;20039;-56
2022/06/10 07:27:47;;;;;;;11.65;2.97;;;;;;;21.96;52.88;102181.78;5084243;28;20050;-57
2022/06/10 07:30:16;;;;;;;10.57;3.45;;;;;;;21.98;53.13;102187.88;5081733;28;20076;-56
2022/06/10 07:32:44;;;;;;;7.82;2.80;;;;;;;21.99;53.83;102184.19;5079525;28;20051;-57
2022/06/10 07:35:10;;;;;;;19.13;3.80;;;;;;;22.02;54.01;102193.81;5081109;28;20040;-57
2022/06/10 07:37:37;;;;;;;10.98;3.10;;;;;;;22.03;54.40;102185.59;5080649;28;21727;-57
2022/06/10 07:40:04;;;;;;;12.25;3.53;;;;;;;22.05;54.66;102185.44;5078363;28;20048;-57
2022/06/10 07:42:34;;;;;;;12.63;3.67;;;;;;;22.07;54.64;102197.81;5080823;28;20044;-57
2022/06/10 07:45:02;;;;;;;14.68;3.95;;;;;;;22.08;54.50;102194.09;5086220;28;20064;-57
2022/06/10 07:47:29;;;;;;;29.73;4.88;;;;;;;22.10;54.81;102183.97;5083557;28;20044;-58
2022/06/10 07:49:55;;;;;;;17.63;4.50;;;;;;;22.11;54.97;102176.72;5081960;28;20056;-57
2022/06/10 07:52:22;;;;;;;29.70;6.32;;;;;;;22.12;55.62;102175.75;5077355;28;20052;-57
2022/06/10 07:54:49;;;;;;;24.75;6.65;;;;;;;22.13;55.66;102177.47;5076243;28;20054;-57
2022/06/10 07:57:16;;;;;;;31.63;6.18;;;;;;;22.14;55.93;102181.88;5077696;28;20199;-58
2022/06/10 07:59:45;;;;;;;31.48;6.10;;;;;;;22.16;56.80;102177.19;5079424;28;20056;-57
2022/06/10 08:02:11;;;;;;;26.98;5.63;;;;;;;22.15;56.69;102181.75;5082393;28;20112;-57
2022/06/10 08:04:38;;;;;;;23.38;6.32;;;;;;;22.16;56.68;102177.19;5076955;28;20044;-57
2022/06/10 08:07:05;;;;;;;21.27;5.75;;;;;;;22.16;56.63;102182.59;5077972;28;20064;-57
2022/06/10 08:09:37;;;;;;;23.73;5.20;;;;;;;22.16;56.97;102178.03;5081527;28;20731;-57
2022/06/10 08:12:04;;;;;;;18.27;4.82;;;;;;;22.17;57.11;102178.88;5083012;28;20052;-56
2022/06/10 08:14:30;;;;;;;24.00;5.38;;;;;;;22.18;56.51;102172.47;5080638;28;20048;-56
2022/06/10 08:16:59;;;;;;;24.98;6.05;;;;;;;22.17;56.84;102171.63;5078152;28;20602;-57
2022/06/10 08:19:25;;;;;;;21.20;4.95;;;;;;;22.17;56.58;102171.63;5078012;28;20043;-56
2022/06/10 08:24:37;;;;;;;16.00;4.32;;;;;;;22.18;56.01;102162.53;5078740;28;20054;-57
2022/06/10 08:27:05;;;;;;;15.52;3.95;;;;;;;22.19;55.93;102168.75;5078285;28;20517;-56
2022/06/10 08:29:32;;;;;;;24.50;4.50;;;;;;;22.17;55.61;102177.03;5077556;28;20376;-56
2022/06/10 08:31:58;;;;;;;14.68;4.00;;;;;;;22.18;55.33;102173.31;5080148;28;20168;-56
2022/06/10 08:34:25;;;;;;;15.70;4.72;;;;;;;22.19;55.38;102168.75;5080144;28;20383;-56
2022/06/10 08:36:52;;;;;;;14.25;4.20;;;;;;;22.21;55.20;102174.03;5079981;28;20047;-56
2022/06/10 08:39:19;;;;;;;11.32;3.88;;;;;;;22.21;55.19;102184.84;5077758;28;20040;-57
2022/06/10 08:42:13;;;;;;;16.25;4.18;;;;;;;22.19;55.16;102171.47;5078307;28;20052;-56
2022/06/10 08:44:50;;;;;;;;;;;;;;;22.21;54.91;102174.88;5085277;28;20159;-57
2022/06/10 08:47:23;;;;;;;17.27;3.85;;;;;;;22.24;54.89;102169.19;5078128;28;19935;-56
2022/06/10 08:49:57;;;;;;;;;;;;;;;22.23;55.11;102188.22;5077471;28;20052;-57
2022/06/10 08:52:54;;;;;;;11.75;4.28;;;;;;;22.25;54.36;102178.16;5079107;28;19928;-57
2022/06/10 08:55:31;;;;;;;14.15;3.65;;;;;;;22.24;54.49;102176.44;5079151;28;20060;-57
2022/06/10 08:58:03;;;;;;;17.95;4.45;;;;;;;22.23;54.16;102180.13;5079961;28;20126;-57
2022/06/10 09:00:36;;;;;;;11.73;3.92;;;;;;;22.23;54.13;102180.13;5083344;28;20048;-57
2022/06/10 09:03:27;;;;;;;12.25;3.53;;;;;;;22.23;54.15;102172.91;5082041;28;20074;-56
2022/06/10 09:05:58;;;;;;;12.35;4.10;;;;;;;22.25;54.33;102170.03;5080845;28;20071;-56
2022/06/10 09:08:31;;;;;;;12.32;3.00;;;;;;;22.27;54.22;102173.44;5079306;28;20451;-57
2022/06/10 09:11:22;;;;;;;11.90;3.45;;;;;;;22.27;54.00;102179.72;5077213;28;20040;-57
2022/06/10 09:13:48;;;;;;;10.43;3.40;;;;;;;22.29;53.96;102172.28;5078647;28;20052;-57
2022/06/10 09:16:18;;;;;;;8.70;3.20;;;;;;;22.30;54.15;102171.28;5080335;28;20041;-56
2022/06/10 09:19:07;;;;;;;12.55;3.53;;;;;;;22.31;54.22;102173.00;5082872;28;20427;-57
2022/06/10 09:21:43;;;;;;;10.35;3.17;;;;;;;22.34;53.98;102182.66;5082833;28;20139;-58
2022/06/10 09:24:26;;;;;;;12.20;3.22;;;;;;;22.36;53.64;102186.06;5085658;28;20043;-58
2022/06/10 09:27:06;;;;;;;8.85;2.58;;;;;;;22.38;53.97;102175.94;5086856;28;20048;-58
2022/06/10 09:29:36;;;;;;;13.52;3.40;;;;;;;22.40;53.89;102176.66;5081229;28;20044;-58
2022/06/10 09:32:50;;;;;;;10.55;2.63;;;;;;;22.40;53.37;102179.34;5079377;28;20144;-58
2022/06/10 09:35:27;;;;;;;17.27;3.05;;;;;;;22.45;53.23;102178.91;5031263;28;20427;-58
2022/06/10 09:38:14;;;;;;;9.82;2.38;;;;;;;22.45;53.26;102179.75;5080351;28;20653;-58
2022/06/10 09:41:19;;;;;;;7.30;2.38;;;;;;;22.46;53.47;102184.16;5078964;28;20052;-58
2022/06/10 09:44:14;;;;;;;7.97;2.55;;;;;;;22.48;53.31;102176.75;5079461;28;20408;-58
2022/06/10 09:46:58;;;;;;;7.68;2.50;;;;;;;22.48;53.19;102176.75;5080631;28;20060;-58
2022/06/10 09:49:47;;;;;;;9.35;2.30;;;;;;;22.50;53.13;102190.09;5081526;28;20399;-56
2022/06/10 09:52:30;;;;;;;11.05;2.60;;;;;;;22.51;53.13;102178.28;5075961;28;20056;-57
2022/06/10 09:55:37;;;;;;;9.70;2.67;;;;;;;22.51;53.18;102179.13;5074176;28;20050;-57
2022/06/10 09:58:38;;;;;;;6.88;2.55;;;;;;;22.54;53.07;102183.41;5075236;28;20062;-57
2022/06/10 10:01:16;;;;;;;8.90;2.78;;;;;;;22.54;52.98;102181.53;5075771;28;20037;-57
2022/06/10 10:04:15;;;;;;;8.07;2.20;;;;;;;22.54;53.40;102184.25;5072004;28;20135;-57
2022/06/10 10:07:00;;;;;;;9.57;2.55;;;;;;;22.57;53.19;102191.22;5076887;28;20113;-57
2022/06/10 10:09:41;;;;;;;6.35;1.98;;;;;;;22.59;52.90;102192.75;5079529;28;20123;-57
2022/06/10 10:12:20;;;;;;;6.13;2.28;;;;;;;22.61;53.12;102185.34;5083140;28;20040;-57
2022/06/10 10:15:11;;;;;;;8.63;2.30;;;;;;;22.62;53.07;102176.22;5083593;28;20076;-57
2022/06/10 10:18:08;;;;;;;5.93;1.75;;;;;;;22.65;53.49;102188.59;5080513;28;20277;-57
2022/06/10 10:21:06;;;;;;;11.75;2.55;;;;;;;22.66;53.15;102180.31;5080524;28;20045;-56
2022/06/10 10:23:46;;;;;;;5.70;1.80;;;;;;;22.67;53.51;102190.16;5082592;28;20048;-57
2022/06/10 10:26:25;;;;;;;5.75;1.90;;;;;;;22.67;53.11;102190.16;5082419;28;20119;-57
2022/06/10 10:28:59;;;;;;;8.35;2.30;;;;;;;22.69;53.04;102189.16;5081020;28;20093;-57
2022/06/10 10:31:29;;;;;;;7.40;1.77;;;;;;;22.69;52.83;102187.28;5077579;28;20499;-57
2022/06/10 10:33:58;;;;;;;7.15;1.63;;;;;;;22.70;52.81;102188.97;5077811;28;20052;-57
2022/06/10 10:36:28;;;;;;;4.88;1.50;;;;;;;22.71;52.85;102192.53;5076656;28;20439;-57
2022/06/10 10:38:57;;;;;;;8.25;2.33;;;;;;;22.73;52.95;102199.50;5085097;28;20053;-57
2022/06/10 10:41:26;;;;;;;5.45;2.05;;;;;;;22.72;53.24;102203.22;5081209;28;20047;-57
2022/06/10 10:43:57;;;;;;;5.20;1.70;;;;;;;22.72;52.73;102192.41;5084163;28;20048;-57
2022/06/10 10:46:32;;;;;;;7.30;2.13;;;;;;;22.73;52.94;102193.25;5083343;28;20084;-57
2022/06/10 10:49:01;;;;;;;3.28;1.55;;;;;;;22.73;53.10;102195.94;5085193;28;20041;-56
2022/06/10 10:51:39;;;;;;;9.82;2.30;;;;;;;22.73;52.73;102204.06;5080152;28;20145;-56
2022/06/10 10:54:30;;;;;;;6.53;2.08;;;;;;;22.74;53.01;102195.78;5078684;28;20151;-56
2022/06/10 10:56:58;;;;;;;5.80;1.77;;;;;;;22.73;52.64;102202.19;5082758;28;20400;-56
2022/06/10 10:59:36;;;;;;;5.85;1.60;;;;;;;22.74;52.94;102211.16;5084714;28;20055;-56
2022/06/10 11:02:25;;;;;;;7.43;1.50;;;;;;;22.74;53.06;102200.34;5084396;28;20050;-56
2022/06/10 11:05:06;;;;;;;4.20;1.50;;;;;;;22.75;52.67;102199.34;5084871;28;20047;-57
2022/06/10 11:07:33;;;;;;;8.77;2.22;;;;;;;22.75;52.72;102202.88;5086123;28;20125;-57
2022/06/10 11:10:19;;;;;;;7.00;1.48;;;;;;;22.74;53.02;102195.78;5085042;28;20511;-56
2022/06/10 11:12:46;;;;;;;6.05;1.63;;;;;;;22.75;52.68;102192.06;5078436;28;20083;-57
2022/06/10 11:15:27;;;;;;;4.60;1.30;;;;;;;22.76;52.79;102203.75;5080646;28;20361;-57
2022/06/10 11:17:56;;;;;;;3.03;1.30;;;;;;;22.78;52.62;102199.03;5078751;28;20042;-57
2022/06/10 11:20:29;;;;;;;6.65;1.83;;;;;;;22.78;52.76;102194.47;5079626;28;20131;-56
2022/06/10 11:23:14;;;;;;;6.22;1.45;;;;;;;22.79;52.95;102203.44;5079926;28;20130;-57
2022/06/10 11:26:13;;;;;;;5.05;1.30;;;;;;;22.80;52.67;102197.03;5084002;28;20044;-57
2022/06/10 11:28:42;;;;;;;4.28;1.45;;;;;;;22.81;52.79;102206.84;5083196;28;20051;-56
2022/06/10 11:31:26;;;;;;;3.25;1.30;;;;;;;22.81;52.70;102193.34;5077747;28;20059;-57
2022/06/10 11:33:57;;;;;;;5.32;1.38;;;;;;;22.81;52.63;102199.59;5078495;28;20101;-56
2022/06/10 11:36:35;;;;;;;8.75;1.80;;;;;;;22.81;52.32;102188.78;5075972;28;20044;-57
2022/06/10 11:39:11;;;;;;;3.33;1.48;;;;;;;22.82;52.41;102190.47;5080923;28;20032;-57
2022/06/10 11:41:38;;;;;;;5.97;1.33;;;;;;;22.84;52.44;102190.34;5078889;28;20048;-57
2022/06/10 11:44:20;;;;;;;5.90;1.40;;;;;;;22.84;52.59;102193.03;5077709;28;20119;-57
2022/06/10 11:46:54;;;;;;;4.70;1.42;;;;;;;22.83;52.36;102184.03;5079942;28;20046;-57
2022/06/10 11:49:31;;;;;;;2.72;1.20;;;;;;;22.84;51.94;102184.94;5082271;28;20082;-56
2022/06/10 11:52:00;;;;;;;4.50;1.30;;;;;;;22.86;52.57;102189.16;5078042;28;20047;-56
2022/06/10 11:54:53;;;;;;;6.15;1.42;;;;;;;22.86;52.53;102178.34;5080804;28;20412;-57
2022/06/10 12:00:33;;;;;;;3.20;1.40;;;;;;;22.89;52.67;102172.63;5079605;28;20039;-56
2022/06/10 12:03:32;;;;;;;4.97;1.83;;;;;;;22.89;52.49;102175.34;5078840;28;20316;-57
2022/06/10 12:06:02;;;;;;;4.43;1.40;;;;;;;22.92;52.14;102178.78;5080842;28;20037;-57
2022/06/10 12:08:49;;;;;;;5.25;1.48;;;;;;;22.90;52.16;102179.78;5077112;28;20050;-56
2022/06/10 12:11:52;;;;;;;5.90;1.83;;;;;;;22.91;52.16;102177.91;5076225;28;20040;-56